sensor_id;sensor_type;location;lat;lon;timestamp;temperature;humidity
40848;DHT22;26570;50.962;5.340;2024-03-23T00:52:58;7.80;99.90
40848;DHT22;26570;50.962;5.340;2024-03-23T00:55:44;8.00;99.90
40848;DHT22;26570;50.962;5.340;2024-03-23T00:58:52;8.10;99.90
40848;DHT22;26570;50.962;5.340;2024-03-23T01:01:47;8.20;99.90
40848;DHT22;26570;50.962;5.340;2024-03-23T01:05:01;8.30;99.90
40848;DHT22;26570;50.962;5.340;2024-03-23T01:08:12;8.20;99.90
40848;DHT22;26570;50.962;5.340;2024-03-23T01:11:05;8.20;99.90
40848;DHT22;26570;50.962;5.340;2024-03-23T01:13:54;8.10;99.90
40848;DHT22;26570;50.962;5.340;2024-03-23T01:16:41;8.10;99.90
40848;DHT22;26570;50.962;5.340;2024-03-23T01:19:49;8.10;99.90
40848;DHT22;26570;50.962;5.340;2024-03-23T01:22:38;8.10;99.90
40848;DHT22;26570;50.962;5.340;2024-03-23T01:25:26;8.10;99.90
40848;DHT22;26570;50.962;5.340;2024-03-23T01:28:12;8.10;99.90
40848;DHT22;26570;50.962;5.340;2024-03-23T01:30:58;8.10;99.90
40848;DHT22;26570;50.962;5.340;2024-03-23T01:33:46;8.20;99.90
40848;DHT22;26570;50.962;5.340;2024-03-23T01:36:41;8.10;99.90
40848;DHT22;26570;50.962;5.340;2024-03-23T01:39:27;8.10;99.90
40848;DHT22;26570;50.962;5.340;2024-03-23T01:42:35;8.10;99.90
40848;DHT22;26570;50.962;5.340;2024-03-23T01:45:43;8.10;99.90
40848;DHT22;26570;50.962;5.340;2024-03-23T01:48:32;8.10;99.90
40848;DHT22;26570;50.962;5.340;2024-03-23T01:51:18;8.00;99.90
40848;DHT22;26570;50.962;5.340;2024-03-23T01:54:08;8.10;99.90
40848;DHT22;26570;50.962;5.340;2024-03-23T01:57:00;8.00;99.90
40848;DHT22;26570;50.962;5.340;2024-03-23T02:00:11;7.90;99.90
40848;DHT22;26570;50.962;5.340;2024-03-23T02:06:05;8.20;99.90
40848;DHT22;26570;50.962;5.340;2024-03-23T02:08:52;8.30;99.90
40848;DHT22;26570;50.962;5.340;2024-03-23T02:11:41;8.40;99.90
40848;DHT22;26570;50.962;5.340;2024-03-23T02:14:49;8.20;99.90
40848;DHT22;26570;50.962;5.340;2024-03-23T02:17:36;8.10;99.90
40848;DHT22;26570;50.962;5.340;2024-03-23T02:20:25;8.10;99.90
40848;DHT22;26570;50.962;5.340;2024-03-23T02:23:14;8.20;99.90
40848;DHT22;26570;50.962;5.340;2024-03-23T02:26:06;8.30;99.90
40848;DHT22;26570;50.962;5.340;2024-03-23T02:29:02;8.10;99.90
40848;DHT22;26570;50.962;5.340;2024-03-23T02:31:47;7.70;99.90
40848;DHT22;26570;50.962;5.340;2024-03-23T02:34:58;7.60;99.90
40848;DHT22;26570;50.962;5.340;2024-03-23T02:37:43;7.40;99.90
40848;DHT22;26570;50.962;5.340;2024-03-23T02:40:32;7.30;99.90
40848;DHT22;26570;50.962;5.340;2024-03-23T02:43:21;7.30;99.90
40848;DHT22;26570;50.962;5.340;2024-03-23T02:46:10;7.40;99.90
40848;DHT22;26570;50.962;5.340;2024-03-23T02:48:57;7.80;99.90
40848;DHT22;26570;50.962;5.340;2024-03-23T02:52:10;7.80;99.90
40848;DHT22;26570;50.962;5.340;2024-03-23T02:55:01;7.80;99.90
40848;DHT22;26570;50.962;5.340;2024-03-23T02:57:47;8.00;99.90
40848;DHT22;26570;50.962;5.340;2024-03-23T03:00:35;8.10;99.90
40848;DHT22;26570;50.962;5.340;2024-03-23T03:03:21;7.80;99.90
40848;DHT22;26570;50.962;5.340;2024-03-23T03:06:12;7.70;99.90
40848;DHT22;26570;50.962;5.340;2024-03-23T03:09:07;7.70;99.90
40848;DHT22;26570;50.962;5.340;2024-03-23T03:12:27;7.70;99.90
40848;DHT22;26570;50.962;5.340;2024-03-23T03:15:15;7.80;99.90
40848;DHT22;26570;50.962;5.340;2024-03-23T03:18:01;7.70;99.90
40848;DHT22;26570;50.962;5.340;2024-03-23T03:21:13;7.50;99.90
40848;DHT22;26570;50.962;5.340;2024-03-23T03:24:37;7.50;99.90
40848;DHT22;26570;50.962;5.340;2024-03-23T03:27:24;7.60;99.90
40848;DHT22;26570;50.962;5.340;2024-03-23T03:30:35;7.40;99.90
40848;DHT22;26570;50.962;5.340;2024-03-23T03:33:23;7.30;99.90
40848;DHT22;26570;50.962;5.340;2024-03-23T03:36:09;7.30;99.90
40848;DHT22;26570;50.962;5.340;2024-03-23T03:38:57;7.20;99.90
40848;DHT22;26570;50.962;5.340;2024-03-23T03:41:45;7.50;99.90
40848;DHT22;26570;50.962;5.340;2024-03-23T03:44:34;7.50;99.90
40848;DHT22;26570;50.962;5.340;2024-03-23T03:47:22;7.40;99.90
40848;DHT22;26570;50.962;5.340;2024-03-23T03:50:11;7.40;99.90
40848;DHT22;26570;50.962;5.340;2024-03-23T03:52:57;7.30;99.90
40848;DHT22;26570;50.962;5.340;2024-03-23T03:55:42;7.40;99.90
40848;DHT22;26570;50.962;5.340;2024-03-23T03:58:29;7.50;99.90
40848;DHT22;26570;50.962;5.340;2024-03-23T04:01:17;7.30;99.90
40848;DHT22;26570;50.962;5.340;2024-03-23T04:04:08;7.30;99.90
40848;DHT22;26570;50.962;5.340;2024-03-23T04:07:03;7.40;99.90
40848;DHT22;26570;50.962;5.340;2024-03-23T04:09:52;7.30;99.90
40848;DHT22;26570;50.962;5.340;2024-03-23T04:12:44;7.40;99.90
40848;DHT22;26570;50.962;5.340;2024-03-23T04:15:56;7.20;99.90
40848;DHT22;26570;50.962;5.340;2024-03-23T04:18:44;7.60;99.90
40848;DHT22;26570;50.962;5.340;2024-03-23T04:21:54;7.50;99.90
40848;DHT22;26570;50.962;5.340;2024-03-23T04:24:43;7.50;99.90
40848;DHT22;26570;50.962;5.340;2024-03-23T04:27:30;7.30;99.90
40848;DHT22;26570;50.962;5.340;2024-03-23T04:30:20;7.10;99.90
40848;DHT22;26570;50.962;5.340;2024-03-23T04:33:07;7.00;99.90
40848;DHT22;26570;50.962;5.340;2024-03-23T04:35:54;7.00;99.90
40848;DHT22;26570;50.962;5.340;2024-03-23T04:38:45;7.00;99.90
40848;DHT22;26570;50.962;5.340;2024-03-23T04:41:35;7.00;99.90
40848;DHT22;26570;50.962;5.340;2024-03-23T04:44:23;7.00;99.90
40848;DHT22;26570;50.962;5.340;2024-03-23T04:47:10;6.80;99.90
40848;DHT22;26570;50.962;5.340;2024-03-23T04:49:59;6.80;99.90
40848;DHT22;26570;50.962;5.340;2024-03-23T04:52:49;6.70;99.90
40848;DHT22;26570;50.962;5.340;2024-03-23T04:55:37;6.70;99.90
40848;DHT22;26570;50.962;5.340;2024-03-23T04:58:32;6.70;99.90
40848;DHT22;26570;50.962;5.340;2024-03-23T05:01:19;6.60;99.90
40848;DHT22;26570;50.962;5.340;2024-03-23T05:04:32;6.50;99.90
40848;DHT22;26570;50.962;5.340;2024-03-23T05:07:22;6.60;99.90
40848;DHT22;26570;50.962;5.340;2024-03-23T05:10:32;6.40;99.90
40848;DHT22;26570;50.962;5.340;2024-03-23T05:13:21;6.30;99.90
40848;DHT22;26570;50.962;5.340;2024-03-23T05:16:07;6.20;99.90
40848;DHT22;26570;50.962;5.340;2024-03-23T05:18:53;6.30;99.90
40848;DHT22;26570;50.962;5.340;2024-03-23T05:21:38;6.30;99.90
40848;DHT22;26570;50.962;5.340;2024-03-23T05:24:24;6.30;99.90
40848;DHT22;26570;50.962;5.340;2024-03-23T05:27:10;6.50;99.90
40848;DHT22;26570;50.962;5.340;2024-03-23T05:29:56;6.30;99.90
40848;DHT22;26570;50.962;5.340;2024-03-23T05:32:43;6.40;99.90
40848;DHT22;26570;50.962;5.340;2024-03-23T05:35:28;6.60;99.90
40848;DHT22;26570;50.962;5.340;2024-03-23T05:38:14;6.80;99.90
40848;DHT22;26570;50.962;5.340;2024-03-23T05:41:00;6.60;99.90
40848;DHT22;26570;50.962;5.340;2024-03-23T05:43:47;6.50;99.90
40848;DHT22;26570;50.962;5.340;2024-03-23T05:46:33;6.50;99.90
40848;DHT22;26570;50.962;5.340;2024-03-23T05:49:19;6.50;99.90
40848;DHT22;26570;50.962;5.340;2024-03-23T05:52:05;6.60;99.90
40848;DHT22;26570;50.962;5.340;2024-03-23T05:54:53;6.70;99.90
40848;DHT22;26570;50.962;5.340;2024-03-23T05:57:38;6.90;99.90
40848;DHT22;26570;50.962;5.340;2024-03-23T06:00:24;7.10;99.90
40848;DHT22;26570;50.962;5.340;2024-03-23T06:03:11;7.20;99.90
40848;DHT22;26570;50.962;5.340;2024-03-23T06:05:57;7.30;99.90
40848;DHT22;26570;50.962;5.340;2024-03-23T06:08:42;7.40;99.90
40848;DHT22;26570;50.962;5.340;2024-03-23T06:11:28;7.40;99.90
40848;DHT22;26570;50.962;5.340;2024-03-23T06:14:14;7.30;99.90
40848;DHT22;26570;50.962;5.340;2024-03-23T06:17:00;7.20;99.90
40848;DHT22;26570;50.962;5.340;2024-03-23T06:19:46;7.10;99.90
40848;DHT22;26570;50.962;5.340;2024-03-23T06:22:32;7.00;99.90
40848;DHT22;26570;50.962;5.340;2024-03-23T06:25:18;7.10;99.90
40848;DHT22;26570;50.962;5.340;2024-03-23T06:28:04;7.20;99.90
40848;DHT22;26570;50.962;5.340;2024-03-23T06:30:50;7.30;99.90
40848;DHT22;26570;50.962;5.340;2024-03-23T06:33:35;7.30;99.90
40848;DHT22;26570;50.962;5.340;2024-03-23T06:36:23;7.40;99.90
40848;DHT22;26570;50.962;5.340;2024-03-23T06:39:09;7.30;99.90
40848;DHT22;26570;50.962;5.340;2024-03-23T06:41:56;7.50;99.90
40848;DHT22;26570;50.962;5.340;2024-03-23T06:44:41;8.20;99.90
40848;DHT22;26570;50.962;5.340;2024-03-23T06:47:27;9.30;99.90
40848;DHT22;26570;50.962;5.340;2024-03-23T06:50:12;10.40;99.90
40848;DHT22;26570;50.962;5.340;2024-03-23T06:52:57;11.50;99.90
40848;DHT22;26570;50.962;5.340;2024-03-23T06:55:42;12.50;99.90
40848;DHT22;26570;50.962;5.340;2024-03-23T06:58:27;13.30;99.90
40848;DHT22;26570;50.962;5.340;2024-03-23T07:01:11;13.40;99.90
40848;DHT22;26570;50.962;5.340;2024-03-23T07:03:56;12.70;99.90
40848;DHT22;26570;50.962;5.340;2024-03-23T07:06:45;12.20;99.90
40848;DHT22;26570;50.962;5.340;2024-03-23T07:09:30;11.40;99.90
40848;DHT22;26570;50.962;5.340;2024-03-23T07:12:15;11.10;99.90
40848;DHT22;26570;50.962;5.340;2024-03-23T07:15:00;10.10;99.90
40848;DHT22;26570;50.962;5.340;2024-03-23T07:17:50;10.00;99.90
40848;DHT22;26570;50.962;5.340;2024-03-23T07:20:58;10.90;99.90
40848;DHT22;26570;50.962;5.340;2024-03-23T07:24:05;11.90;99.90
40848;DHT22;26570;50.962;5.340;2024-03-23T07:27:22;13.10;99.90
40848;DHT22;26570;50.962;5.340;2024-03-23T07:30:16;13.00;99.90
40848;DHT22;26570;50.962;5.340;2024-03-23T07:33:20;12.20;99.90
40848;DHT22;26570;50.962;5.340;2024-03-23T07:36:07;11.40;99.90
40848;DHT22;26570;50.962;5.340;2024-03-23T07:39:25;11.20;99.90
40848;DHT22;26570;50.962;5.340;2024-03-23T07:42:34;10.20;99.90
40848;DHT22;26570;50.962;5.340;2024-03-23T07:45:20;9.90;99.90
40848;DHT22;26570;50.962;5.340;2024-03-23T07:48:32;9.70;99.90
40848;DHT22;26570;50.962;5.340;2024-03-23T07:51:22;9.30;99.90
40848;DHT22;26570;50.962;5.340;2024-03-23T07:54:07;9.00;99.90
40848;DHT22;26570;50.962;5.340;2024-03-23T07:56:52;9.10;99.90
40848;DHT22;26570;50.962;5.340;2024-03-23T07:59:59;9.20;99.90
40848;DHT22;26570;50.962;5.340;2024-03-23T08:02:47;9.50;99.90
40848;DHT22;26570;50.962;5.340;2024-03-23T08:05:39;9.60;99.90
40848;DHT22;26570;50.962;5.340;2024-03-23T08:08:24;9.40;99.90
40848;DHT22;26570;50.962;5.340;2024-03-23T08:11:10;9.70;99.90
40848;DHT22;26570;50.962;5.340;2024-03-23T08:13:56;10.30;99.90
40848;DHT22;26570;50.962;5.340;2024-03-23T08:16:43;10.20;99.90
40848;DHT22;26570;50.962;5.340;2024-03-23T08:19:55;9.80;99.90
40848;DHT22;26570;50.962;5.340;2024-03-23T08:22:40;9.60;99.90
40848;DHT22;26570;50.962;5.340;2024-03-23T08:25:54;10.20;99.90
40848;DHT22;26570;50.962;5.340;2024-03-23T08:28:45;10.20;99.90
40848;DHT22;26570;50.962;5.340;2024-03-23T08:31:30;9.90;99.90
40848;DHT22;26570;50.962;5.340;2024-03-23T08:34:15;10.10;99.90
40848;DHT22;26570;50.962;5.340;2024-03-23T08:37:00;9.80;99.90
40848;DHT22;26570;50.962;5.340;2024-03-23T08:39:47;10.10;99.90
40848;DHT22;26570;50.962;5.340;2024-03-23T08:42:32;10.20;99.90
40848;DHT22;26570;50.962;5.340;2024-03-23T08:45:40;10.50;99.90
40848;DHT22;26570;50.962;5.340;2024-03-23T08:48:29;10.10;99.90
40848;DHT22;26570;50.962;5.340;2024-03-23T08:51:38;10.50;99.90
40848;DHT22;26570;50.962;5.340;2024-03-23T08:54:23;10.80;99.90
40848;DHT22;26570;50.962;5.340;2024-03-23T08:57:09;10.90;99.90
40848;DHT22;26570;50.962;5.340;2024-03-23T09:00:22;11.50;99.90
40848;DHT22;26570;50.962;5.340;2024-03-23T09:03:10;11.00;99.90
40848;DHT22;26570;50.962;5.340;2024-03-23T09:06:22;10.50;99.90
40848;DHT22;26570;50.962;5.340;2024-03-23T09:09:11;10.00;99.90
40848;DHT22;26570;50.962;5.340;2024-03-23T09:12:14;10.00;99.90
40848;DHT22;26570;50.962;5.340;2024-03-23T09:15:00;10.30;99.90
40848;DHT22;26570;50.962;5.340;2024-03-23T09:17:49;10.30;99.90
40848;DHT22;26570;50.962;5.340;2024-03-23T09:20:34;10.20;99.90
40848;DHT22;26570;50.962;5.340;2024-03-23T09:23:21;10.40;99.90
40848;DHT22;26570;50.962;5.340;2024-03-23T09:26:29;10.50;99.90
40848;DHT22;26570;50.962;5.340;2024-03-23T09:29:36;10.10;99.90
40848;DHT22;26570;50.962;5.340;2024-03-23T09:32:29;10.10;99.90
40848;DHT22;26570;50.962;5.340;2024-03-23T09:35:41;10.10;99.90
40848;DHT22;26570;50.962;5.340;2024-03-23T09:38:49;9.90;99.90
40848;DHT22;26570;50.962;5.340;2024-03-23T09:41:38;9.70;99.90
40848;DHT22;26570;50.962;5.340;2024-03-23T09:44:25;9.70;99.90
40848;DHT22;26570;50.962;5.340;2024-03-23T09:47:36;9.70;99.90
40848;DHT22;26570;50.962;5.340;2024-03-23T09:50:26;9.60;99.90
40848;DHT22;26570;50.962;5.340;2024-03-23T09:53:18;9.70;99.90
40848;DHT22;26570;50.962;5.340;2024-03-23T09:56:05;9.60;99.90
40848;DHT22;26570;50.962;5.340;2024-03-23T09:58:50;9.30;99.90
40848;DHT22;26570;50.962;5.340;2024-03-23T10:01:39;9.10;99.90
40848;DHT22;26570;50.962;5.340;2024-03-23T10:04:37;8.60;99.90
40848;DHT22;26570;50.962;5.340;2024-03-23T10:07:27;8.20;99.90
40848;DHT22;26570;50.962;5.340;2024-03-23T10:10:16;8.00;99.90
40848;DHT22;26570;50.962;5.340;2024-03-23T10:13:28;7.90;99.90
40848;DHT22;26570;50.962;5.340;2024-03-23T10:16:23;8.10;99.90
40848;DHT22;26570;50.962;5.340;2024-03-23T10:19:12;8.60;99.90
40848;DHT22;26570;50.962;5.340;2024-03-23T10:21:59;9.00;99.90
40848;DHT22;26570;50.962;5.340;2024-03-23T10:25:10;9.50;99.90
40848;DHT22;26570;50.962;5.340;2024-03-23T10:28:06;9.90;99.90
40848;DHT22;26570;50.962;5.340;2024-03-23T10:30:52;10.00;99.90
40848;DHT22;26570;50.962;5.340;2024-03-23T10:34:00;10.40;99.90
40848;DHT22;26570;50.962;5.340;2024-03-23T10:37:08;10.70;99.90
40848;DHT22;26570;50.962;5.340;2024-03-23T10:40:18;11.00;99.90
40848;DHT22;26570;50.962;5.340;2024-03-23T10:43:04;10.70;99.90
40848;DHT22;26570;50.962;5.340;2024-03-23T10:46:12;10.60;99.90
40848;DHT22;26570;50.962;5.340;2024-03-23T10:49:21;10.70;99.90
40848;DHT22;26570;50.962;5.340;2024-03-23T10:52:07;10.20;99.90
40848;DHT22;26570;50.962;5.340;2024-03-23T10:54:52;9.50;99.90
40848;DHT22;26570;50.962;5.340;2024-03-23T10:57:38;8.20;99.90
40848;DHT22;26570;50.962;5.340;2024-03-23T11:00:25;7.30;99.90
40848;DHT22;26570;50.962;5.340;2024-03-23T11:03:38;7.00;99.90
40848;DHT22;26570;50.962;5.340;2024-03-23T11:06:39;7.20;99.90
40848;DHT22;26570;50.962;5.340;2024-03-23T11:12:51;7.10;99.90
40848;DHT22;26570;50.962;5.340;2024-03-23T11:15:37;7.40;99.90
40848;DHT22;26570;50.962;5.340;2024-03-23T11:30:35;7.80;99.90
40848;DHT22;26570;50.962;5.340;2024-03-23T11:33:23;8.00;99.90
40848;DHT22;26570;50.962;5.340;2024-03-23T11:36:34;8.30;99.90
40848;DHT22;26570;50.962;5.340;2024-03-23T11:40:19;8.90;99.90
40848;DHT22;26570;50.962;5.340;2024-03-23T11:43:42;8.90;99.90
40848;DHT22;26570;50.962;5.340;2024-03-23T11:46:28;9.00;99.90
40848;DHT22;26570;50.962;5.340;2024-03-23T11:49:42;9.10;99.90
40848;DHT22;26570;50.962;5.340;2024-03-23T11:52:51;9.30;99.90
40848;DHT22;26570;50.962;5.340;2024-03-23T11:55:52;8.90;99.90
40848;DHT22;26570;50.962;5.340;2024-03-23T11:59:03;8.80;99.90
40848;DHT22;26570;50.962;5.340;2024-03-23T12:01:49;8.50;99.90
40848;DHT22;26570;50.962;5.340;2024-03-23T12:04:35;8.10;99.90
40848;DHT22;26570;50.962;5.340;2024-03-23T12:07:25;7.80;99.90
40848;DHT22;26570;50.962;5.340;2024-03-23T12:10:11;7.20;99.90
40848;DHT22;26570;50.962;5.340;2024-03-23T12:13:21;7.10;99.90
40848;DHT22;26570;50.962;5.340;2024-03-23T12:20:24;7.20;99.90
40848;DHT22;26570;50.962;5.340;2024-03-23T12:23:11;7.50;99.90
40848;DHT22;26570;50.962;5.340;2024-03-23T12:26:02;8.00;99.90
40848;DHT22;26570;50.962;5.340;2024-03-23T12:33:17;8.70;99.90
40848;DHT22;26570;50.962;5.340;2024-03-23T12:36:06;8.80;99.90
40848;DHT22;26570;50.962;5.340;2024-03-23T12:38:53;8.90;99.90
40848;DHT22;26570;50.962;5.340;2024-03-23T12:41:39;8.90;99.90
40848;DHT22;26570;50.962;5.340;2024-03-23T12:44:25;9.10;99.90
40848;DHT22;26570;50.962;5.340;2024-03-23T12:47:12;9.40;99.90
40848;DHT22;26570;50.962;5.340;2024-03-23T12:50:15;9.60;99.90
40848;DHT22;26570;50.962;5.340;2024-03-23T12:53:27;9.60;99.90
40848;DHT22;26570;50.962;5.340;2024-03-23T12:56:16;8.90;99.90
40848;DHT22;26570;50.962;5.340;2024-03-23T12:59:06;9.60;99.90
40848;DHT22;26570;50.962;5.340;2024-03-23T13:02:01;9.40;99.90
40848;DHT22;26570;50.962;5.340;2024-03-23T13:04:52;9.30;99.90
40848;DHT22;26570;50.962;5.340;2024-03-23T13:07:39;9.10;99.90
40848;DHT22;26570;50.962;5.340;2024-03-23T13:10:52;8.90;99.90
40848;DHT22;26570;50.962;5.340;2024-03-23T13:14:06;8.80;99.90
40848;DHT22;26570;50.962;5.340;2024-03-23T13:17:31;9.10;99.90
40848;DHT22;26570;50.962;5.340;2024-03-23T13:20:51;9.20;99.90
40848;DHT22;26570;50.962;5.340;2024-03-23T13:24:02;9.50;99.90
40848;DHT22;26570;50.962;5.340;2024-03-23T13:27:01;9.50;99.90
40848;DHT22;26570;50.962;5.340;2024-03-23T13:30:20;9.60;99.90
40848;DHT22;26570;50.962;5.340;2024-03-23T13:33:28;9.40;99.90
40848;DHT22;26570;50.962;5.340;2024-03-23T13:36:40;9.40;99.90
40848;DHT22;26570;50.962;5.340;2024-03-23T13:39:52;9.40;99.90
40848;DHT22;26570;50.962;5.340;2024-03-23T13:42:42;9.70;99.90
40848;DHT22;26570;50.962;5.340;2024-03-23T13:45:43;10.00;99.90
40848;DHT22;26570;50.962;5.340;2024-03-23T13:49:09;10.30;99.90
40848;DHT22;26570;50.962;5.340;2024-03-23T13:52:11;10.20;99.90
40848;DHT22;26570;50.962;5.340;2024-03-23T13:55:38;9.90;99.90
40848;DHT22;26570;50.962;5.340;2024-03-23T13:58:35;10.10;99.90
40848;DHT22;26570;50.962;5.340;2024-03-23T14:04:50;10.20;99.90
40848;DHT22;26570;50.962;5.340;2024-03-23T14:07:39;10.00;99.90
40848;DHT22;26570;50.962;5.340;2024-03-23T14:11:09;10.60;99.90
40848;DHT22;26570;50.962;5.340;2024-03-23T14:14:24;10.10;99.90
40848;DHT22;26570;50.962;5.340;2024-03-23T14:17:18;10.00;99.90
40848;DHT22;26570;50.962;5.340;2024-03-23T14:20:16;9.60;99.90
40848;DHT22;26570;50.962;5.340;2024-03-23T14:23:08;9.10;99.90
40848;DHT22;26570;50.962;5.340;2024-03-23T14:26:51;8.90;99.90
40848;DHT22;26570;50.962;5.340;2024-03-23T14:30:07;8.80;99.90
40848;DHT22;26570;50.962;5.340;2024-03-23T14:33:02;8.80;99.90
40848;DHT22;26570;50.962;5.340;2024-03-23T14:36:14;8.90;99.90
40848;DHT22;26570;50.962;5.340;2024-03-23T14:39:09;9.30;99.90
40848;DHT22;26570;50.962;5.340;2024-03-23T14:42:01;9.70;99.90
40848;DHT22;26570;50.962;5.340;2024-03-23T14:44:50;9.50;99.90
40848;DHT22;26570;50.962;5.340;2024-03-23T14:47:43;9.10;99.90
40848;DHT22;26570;50.962;5.340;2024-03-23T14:50:35;9.10;99.90
40848;DHT22;26570;50.962;5.340;2024-03-23T14:53:38;8.80;99.90
40848;DHT22;26570;50.962;5.340;2024-03-23T14:56:33;9.40;99.90
40848;DHT22;26570;50.962;5.340;2024-03-23T14:59:25;8.80;99.90
40848;DHT22;26570;50.962;5.340;2024-03-23T15:02:23;8.90;99.90
40848;DHT22;26570;50.962;5.340;2024-03-23T15:05:15;9.20;99.90
40848;DHT22;26570;50.962;5.340;2024-03-23T15:08:15;9.40;99.90
40848;DHT22;26570;50.962;5.340;2024-03-23T15:11:07;9.50;99.90
40848;DHT22;26570;50.962;5.340;2024-03-23T15:14:24;9.30;99.90
40848;DHT22;26570;50.962;5.340;2024-03-23T15:17:25;9.70;99.90
40848;DHT22;26570;50.962;5.340;2024-03-23T15:20:27;9.60;99.90
40848;DHT22;26570;50.962;5.340;2024-03-23T15:23:41;9.80;99.90
40848;DHT22;26570;50.962;5.340;2024-03-23T15:26:36;9.80;99.90
40848;DHT22;26570;50.962;5.340;2024-03-23T15:29:28;10.40;99.90
40848;DHT22;26570;50.962;5.340;2024-03-23T15:32:55;10.60;99.90
40848;DHT22;26570;50.962;5.340;2024-03-23T15:35:48;10.40;99.90
40848;DHT22;26570;50.962;5.340;2024-03-23T15:38:35;11.00;99.90
40848;DHT22;26570;50.962;5.340;2024-03-23T15:41:26;11.10;99.90
40848;DHT22;26570;50.962;5.340;2024-03-23T15:44:36;11.10;99.90
40848;DHT22;26570;50.962;5.340;2024-03-23T15:47:45;11.00;99.90
40848;DHT22;26570;50.962;5.340;2024-03-23T15:50:59;11.00;99.90
40848;DHT22;26570;50.962;5.340;2024-03-23T15:53:51;10.80;99.90
40848;DHT22;26570;50.962;5.340;2024-03-23T15:56:46;11.10;99.90
40848;DHT22;26570;50.962;5.340;2024-03-23T15:59:37;11.20;99.90
40848;DHT22;26570;50.962;5.340;2024-03-23T16:02:34;10.70;99.90
40848;DHT22;26570;50.962;5.340;2024-03-23T16:05:24;12.00;99.90
40848;DHT22;26570;50.962;5.340;2024-03-23T16:08:18;10.90;99.90
40848;DHT22;26570;50.962;5.340;2024-03-23T16:11:34;11.40;99.90
40848;DHT22;26570;50.962;5.340;2024-03-23T16:14:35;10.60;99.90
40848;DHT22;26570;50.962;5.340;2024-03-23T16:17:28;10.30;99.90
40848;DHT22;26570;50.962;5.340;2024-03-23T16:20:17;10.40;99.90
40848;DHT22;26570;50.962;5.340;2024-03-23T16:23:17;10.50;99.90
40848;DHT22;26570;50.962;5.340;2024-03-23T16:26:12;10.30;99.90
40848;DHT22;26570;50.962;5.340;2024-03-23T16:29:05;10.60;99.90
40848;DHT22;26570;50.962;5.340;2024-03-23T16:32:04;9.80;99.90
40848;DHT22;26570;50.962;5.340;2024-03-23T16:35:21;9.60;99.90
40848;DHT22;26570;50.962;5.340;2024-03-23T16:38:10;9.20;99.90
40848;DHT22;26570;50.962;5.340;2024-03-23T16:41:29;8.60;99.90
40848;DHT22;26570;50.962;5.340;2024-03-23T16:44:30;8.40;99.90
40848;DHT22;26570;50.962;5.340;2024-03-23T16:47:48;8.30;99.90
40848;DHT22;26570;50.962;5.340;2024-03-23T16:50:56;8.60;99.90
40848;DHT22;26570;50.962;5.340;2024-03-23T16:54:16;8.80;99.90
40848;DHT22;26570;50.962;5.340;2024-03-23T16:57:12;9.10;99.90
40848;DHT22;26570;50.962;5.340;2024-03-23T17:00:44;9.10;99.90
40848;DHT22;26570;50.962;5.340;2024-03-23T17:03:36;9.10;99.90
40848;DHT22;26570;50.962;5.340;2024-03-23T17:06:29;9.20;99.90
40848;DHT22;26570;50.962;5.340;2024-03-23T17:09:32;9.20;99.90
40848;DHT22;26570;50.962;5.340;2024-03-23T17:12:22;9.30;99.90
40848;DHT22;26570;50.962;5.340;2024-03-23T17:15:18;9.20;99.90
40848;DHT22;26570;50.962;5.340;2024-03-23T17:18:36;9.10;99.90
40848;DHT22;26570;50.962;5.340;2024-03-23T17:21:22;8.90;99.90
40848;DHT22;26570;50.962;5.340;2024-03-23T17:24:39;8.80;99.90
40848;DHT22;26570;50.962;5.340;2024-03-23T17:27:53;8.70;99.90
40848;DHT22;26570;50.962;5.340;2024-03-23T17:30:40;8.60;99.90
40848;DHT22;26570;50.962;5.340;2024-03-23T17:33:54;8.60;99.90
40848;DHT22;26570;50.962;5.340;2024-03-23T17:36:55;8.50;99.90
40848;DHT22;26570;50.962;5.340;2024-03-23T17:40:11;8.30;99.90
40848;DHT22;26570;50.962;5.340;2024-03-23T17:43:25;8.30;99.90
40848;DHT22;26570;50.962;5.340;2024-03-23T17:46:48;8.10;99.90
40848;DHT22;26570;50.962;5.340;2024-03-23T17:49:56;7.90;99.90
40848;DHT22;26570;50.962;5.340;2024-03-23T17:52:58;7.50;99.90
40848;DHT22;26570;50.962;5.340;2024-03-23T17:55:47;7.80;99.90
40848;DHT22;26570;50.962;5.340;2024-03-23T17:58:41;7.70;99.90
40848;DHT22;26570;50.962;5.340;2024-03-23T18:01:37;7.60;99.90
40848;DHT22;26570;50.962;5.340;2024-03-23T18:04:29;7.50;99.90
40848;DHT22;26570;50.962;5.340;2024-03-23T18:07:28;7.40;99.90
40848;DHT22;26570;50.962;5.340;2024-03-23T18:10:29;7.30;99.90
40848;DHT22;26570;50.962;5.340;2024-03-23T18:13:18;7.30;99.90
40848;DHT22;26570;50.962;5.340;2024-03-23T18:23:33;8.00;99.90
40848;DHT22;26570;50.962;5.340;2024-03-23T18:26:19;7.10;99.90
40848;DHT22;26570;50.962;5.340;2024-03-23T18:29:06;7.10;99.90
40848;DHT22;26570;50.962;5.340;2024-03-23T18:31:51;7.00;99.90
40848;DHT22;26570;50.962;5.340;2024-03-23T18:34:59;7.00;99.90
40848;DHT22;26570;50.962;5.340;2024-03-23T18:38:09;7.00;99.90
40848;DHT22;26570;50.962;5.340;2024-03-23T18:40:55;7.00;99.90
40848;DHT22;26570;50.962;5.340;2024-03-23T18:43:46;7.00;99.90
40848;DHT22;26570;50.962;5.340;2024-03-23T18:46:54;7.10;99.90
40848;DHT22;26570;50.962;5.340;2024-03-23T18:50:02;7.20;99.90
40848;DHT22;26570;50.962;5.340;2024-03-23T18:52:47;7.20;99.90
40848;DHT22;26570;50.962;5.340;2024-03-23T18:55:40;7.40;99.90
40848;DHT22;26570;50.962;5.340;2024-03-23T18:58:34;7.70;99.90
40848;DHT22;26570;50.962;5.340;2024-03-23T19:01:43;7.60;99.90
40848;DHT22;26570;50.962;5.340;2024-03-23T19:04:51;7.70;99.90
40848;DHT22;26570;50.962;5.340;2024-03-23T19:08:05;7.60;99.90
40848;DHT22;26570;50.962;5.340;2024-03-23T19:10:59;7.40;99.90
40848;DHT22;26570;50.962;5.340;2024-03-23T19:13:45;7.40;99.90
40848;DHT22;26570;50.962;5.340;2024-03-23T19:16:34;7.50;99.90
40848;DHT22;26570;50.962;5.340;2024-03-23T19:19:25;7.30;99.90
40848;DHT22;26570;50.962;5.340;2024-03-23T19:22:46;7.20;99.90
40848;DHT22;26570;50.962;5.340;2024-03-23T19:25:32;7.00;99.90
40848;DHT22;26570;50.962;5.340;2024-03-23T19:28:24;6.90;99.90
40848;DHT22;26570;50.962;5.340;2024-03-23T19:31:10;6.90;99.90
40848;DHT22;26570;50.962;5.340;2024-03-23T19:33:55;6.80;99.90
40848;DHT22;26570;50.962;5.340;2024-03-23T19:37:10;6.80;99.90
40848;DHT22;26570;50.962;5.340;2024-03-23T19:39:56;7.00;99.90
40848;DHT22;26570;50.962;5.340;2024-03-23T19:42:41;6.70;99.90
40848;DHT22;26570;50.962;5.340;2024-03-23T19:45:29;6.50;99.90
40848;DHT22;26570;50.962;5.340;2024-03-23T19:48:17;6.40;99.90
40848;DHT22;26570;50.962;5.340;2024-03-23T19:51:06;6.40;99.90
40848;DHT22;26570;50.962;5.340;2024-03-23T19:54:19;6.30;99.90
40848;DHT22;26570;50.962;5.340;2024-03-23T19:57:28;6.50;99.90
40848;DHT22;26570;50.962;5.340;2024-03-23T20:00:25;6.50;99.90
40848;DHT22;26570;50.962;5.340;2024-03-23T20:03:13;6.50;99.90
40848;DHT22;26570;50.962;5.340;2024-03-23T20:06:02;6.50;99.90
40848;DHT22;26570;50.962;5.340;2024-03-23T20:09:12;6.50;99.90
40848;DHT22;26570;50.962;5.340;2024-03-23T20:12:22;6.50;99.90
40848;DHT22;26570;50.962;5.340;2024-03-23T20:15:08;6.40;99.90